Time;durP1;ratioP1;P1;durP2;ratioP2;P2;SDS_P1;SDS_P2;PMS_P1;PMS_P2;Temp;Humidity;BMP_temperature;BMP_pressure;BME280_temperature;BME280_humidity;BME280_pressure;Samples;Min_cycle;Max_cycle;Signal;HPM_P1;HPM_P2
2021/05/04 00:00:12;;;;;;;47.48;31.78;;;;;;;4.35;67.32;100469.45;127057;1107;22395;-74
2021/05/04 00:03:01;;;;;;;49.13;28.40;;;;;;;4.31;67.32;100468.04;127130;1106;24661;-73
2021/05/04 00:05:30;;;;;;;38.08;24.00;;;;;;;4.24;67.08;100478.16;127052;1108;22412;-74
2021/05/04 00:07:59;;;;;;;35.75;23.70;;;;;;;4.13;67.27;100465.97;127625;1108;22868;-74
2021/05/04 00:10:27;;;;;;;41.28;25.55;;;;;;;4.03;67.48;100465.01;127099;1105;24520;-74
2021/05/04 00:12:56;;;;;;;57.60;35.00;;;;;;;4.03;67.86;100470.23;127482;1107;22494;-74
2021/05/04 00:15:25;;;;;;;60.10;40.85;;;;;;;3.99;67.75;100466.22;127673;1101;22377;-75
2021/05/04 00:17:54;;;;;;;52.33;34.13;;;;;;;3.90;67.58;100462.57;127956;1104;22446;-75
2021/05/04 00:20:23;;;;;;;64.98;42.60;;;;;;;3.84;67.78;100459.62;127949;1101;24572;-74
2021/05/04 00:22:52;;;;;;;57.73;36.85;;;;;;;3.78;68.03;100460.92;128000;1101;22370;-75
2021/05/04 00:25:21;;;;;;;51.88;31.45;;;;;;;3.74;68.12;100459.52;128206;1098;24989;-75
2021/05/04 00:27:49;;;;;;;36.08;26.45;;;;;;;3.70;68.22;100453.70;128057;1101;22356;-75
2021/05/04 00:30:18;;;;;;;36.67;25.97;;;;;;;3.68;68.40;100444.31;128210;1101;22348;-75
2021/05/04 00:32:47;;;;;;;31.83;22.55;;;;;;;3.65;68.53;100434.92;128237;1101;22365;-74
2021/05/04 00:35:16;;;;;;;33.43;24.48;;;;;;;3.58;68.38;100428.53;128271;1098;24782;-74
2021/05/04 00:37:45;;;;;;;39.23;28.58;;;;;;;3.51;68.73;100425.57;128228;1101;22383;-75
2021/05/04 00:40:14;;;;;;;38.95;27.30;;;;;;;3.45;68.96;100425.22;128243;1101;22370;-76
2021/05/04 00:42:43;;;;;;;29.00;22.10;;;;;;;3.39;68.89;100428.30;128048;1101;22356;-74
2021/05/04 00:45:27;;;;;;;33.20;21.17;;;;;;;3.33;69.21;100426.16;127982;1104;22375;-74
2021/05/04 00:47:56;;;;;;;26.30;20.83;;;;;;;3.31;69.39;100421.08;127996;1104;22352;-75
2021/05/04 00:50:25;;;;;;;27.33;18.63;;;;;;;3.33;69.69;100416.55;127998;1104;22771;-76
2021/05/04 00:52:54;;;;;;;23.35;17.75;;;;;;;3.31;69.65;100410.63;128021;1104;22459;-75
2021/05/04 00:55:23;;;;;;;24.48;17.53;;;;;;;3.30;69.92;100419.42;127992;1104;22367;-73
2021/05/04 00:57:55;;;;;;;22.83;17.25;;;;;;;3.25;69.80;100418.94;127949;1104;22679;-74
2021/05/04 01:00:24;;;;;;;25.53;17.87;;;;;;;3.21;69.94;100413.13;128015;1104;22453;-74
2021/05/04 01:02:54;;;;;;;26.38;17.95;;;;;;;3.22;70.08;100417.39;127663;1104;25850;-74
2021/05/04 01:05:24;;;;;;;26.57;19.57;;;;;;;3.26;70.26;100415.37;128017;1104;22349;-74
2021/05/04 01:07:53;;;;;;;25.63;18.98;;;;;;;3.29;70.31;100417.74;128033;1101;22335;-74
2021/05/04 01:10:22;;;;;;;22.28;16.50;;;;;;;3.27;70.17;100417.05;127998;1104;22858;-74
2021/05/04 01:12:51;;;;;;;23.90;17.13;;;;;;;3.23;70.14;100410.38;128006;1101;22339;-73
2021/05/04 01:15:20;;;;;;;24.15;17.33;;;;;;;3.22;70.23;100413.95;127997;1104;22372;-73
2021/05/04 01:17:49;;;;;;;22.87;15.93;;;;;;;3.12;70.13;100400.78;127953;1104;22439;-73
2021/05/04 01:20:18;;;;;;;21.28;15.83;;;;;;;3.06;70.21;100398.63;128007;1102;22358;-75
2021/05/04 01:22:47;;;;;;;27.58;17.85;;;;;;;2.98;70.29;100404.45;128050;1100;22866;-75
2021/05/04 01:25:16;;;;;;;22.93;17.00;;;;;;;2.93;70.67;100406.60;128267;1098;24478;-74
2021/05/04 01:27:45;;;;;;;25.30;17.30;;;;;;;2.89;70.62;100396.50;128258;1098;24482;-74
2021/05/04 01:30:15;;;;;;;22.55;16.90;;;;;;;2.83;70.83;100382.13;128204;1101;22398;-74
2021/05/04 01:32:44;;;;;;;24.47;16.77;;;;;;;2.78;70.86;100390.32;128039;1101;22877;-74
2021/05/04 01:35:16;;;;;;;22.55;16.93;;;;;;;2.75;71.15;100379.30;128041;1100;22434;-75
2021/05/04 01:37:57;;;;;;;21.20;16.05;;;;;;;2.72;71.37;100382.95;128193;1101;22359;-74
2021/05/04 01:40:26;;;;;;;23.68;16.48;;;;;;;2.69;71.43;100377.97;128049;1104;22384;-75
2021/05/04 01:42:55;;;;;;;22.33;16.55;;;;;;;2.65;71.36;100371.33;127938;1104;22368;-75
2021/05/04 01:45:24;;;;;;;22.68;16.40;;;;;;;2.64;71.58;100364.47;127560;1107;22444;-76
2021/05/04 01:47:52;;;;;;;20.40;15.45;;;;;;;2.63;71.85;100362.78;127559;1108;22397;-73
2021/05/04 01:50:21;;;;;;;22.98;15.93;;;;;;;2.58;71.75;100357.92;127548;1106;22432;-74
2021/05/04 01:52:51;;;;;;;21.65;15.80;;;;;;;2.58;71.90;100362.31;127647;1103;22378;-73
2021/05/04 01:55:20;;;;;;;18.50;15.10;;;;;;;2.58;71.99;100359.70;127936;1101;22858;-74
2021/05/04 01:57:49;;;;;;;22.53;17.20;;;;;;;2.61;72.02;100363.87;127579;1104;22414;-74
2021/05/04 02:00:19;;;;;;;22.23;16.13;;;;;;;2.62;72.04;100358.52;127535;1104;24374;-75
2021/05/04 02:02:48;;;;;;;20.48;15.80;;;;;;;2.56;72.02;100351.98;127531;1105;22418;-74
2021/05/04 02:05:16;;;;;;;26.18;20.45;;;;;;;2.52;72.03;100350.56;127488;1105;24279;-76
2021/05/04 02:07:45;;;;;;;26.40;20.20;;;;;;;2.48;72.09;100349.14;127553;1104;24604;-74
2021/05/04 02:10:15;;;;;;;23.40;18.38;;;;;;;2.46;72.26;100337.98;127730;1105;22444;-75
2021/05/04 02:12:44;;;;;;;23.17;17.63;;;;;;;2.44;72.32;100333.85;128029;1104;22534;-75
2021/05/04 02:15:13;;;;;;;21.70;16.45;;;;;;;2.40;72.31;100324.58;127936;1102;22829;-75
2021/05/04 02:17:42;;;;;;;19.67;15.17;;;;;;;2.38;72.39;100334.31;128058;1098;23127;-73
2021/05/04 02:20:12;;;;;;;20.08;14.90;;;;;;;2.33;72.58;100332.03;128264;1098;22354;-74
2021/05/04 02:22:42;;;;;;;25.20;17.48;;;;;;;2.31;72.50;100321.73;128126;1101;22383;-73
2021/05/04 02:25:12;;;;;;;24.78;17.40;;;;;;;2.34;72.87;100321.50;128265;1098;24348;-74
2021/05/04 02:27:40;;;;;;;25.23;21.75;;;;;;;2.39;72.87;100317.71;128321;1098;24242;-74
2021/05/04 02:30:11;;;;;;;23.13;19.93;;;;;;;2.41;72.79;100316.66;128240;1101;22624;-74
2021/05/04 02:32:41;;;;;;;26.33;21.03;;;;;;;2.41;72.68;100313.22;128257;1098;22353;-73
2021/05/04 02:35:11;;;;;;;23.68;18.40;;;;;;;2.40;72.57;100315.00;128261;1101;22348;-74
2021/05/04 02:37:40;;;;;;;22.93;17.48;;;;;;;2.35;72.56;100301.47;127954;1104;22361;-73
2021/05/04 02:40:10;;;;;;;22.83;19.33;;;;;;;2.31;72.55;100307.88;127996;1104;22345;-74
2021/05/04 02:42:39;;;;;;;21.58;18.28;;;;;;;2.27;72.50;100299.45;128080;1104;22405;-73
2021/05/04 02:45:09;;;;;;;23.58;18.93;;;;;;;2.25;72.72;100292.69;127970;1101;22389;-73
2021/05/04 02:47:38;;;;;;;24.68;21.30;;;;;;;2.22;72.85;100290.31;128030;1104;22386;-74
2021/05/04 02:50:08;;;;;;;24.20;19.08;;;;;;;2.22;73.06;100293.74;127951;1104;22355;-75
2021/05/04 02:52:37;;;;;;;25.00;20.00;;;;;;;2.23;72.97;100289.36;127708;1104;22390;-74
2021/05/04 02:55:09;;;;;;;24.98;19.80;;;;;;;2.22;73.06;100285.92;127556;1105;22387;-74
2021/05/04 02:57:38;;;;;;;26.33;19.80;;;;;;;2.19;73.22;100273.13;127958;1104;22839;-74
2021/05/04 03:00:08;;;;;;;25.73;18.80;;;;;;;2.18;73.08;100274.08;128013;1103;22387;-74
2021/05/04 03:02:37;;;;;;;25.63;19.95;;;;;;;2.16;73.04;100273.35;127701;1104;22411;-73
2021/05/04 03:05:09;;;;;;;22.45;18.78;;;;;;;2.15;73.33;100269.09;127649;1104;22628;-75
2021/05/04 03:07:38;;;;;;;25.15;19.43;;;;;;;2.17;73.36;100269.00;127669;1107;22450;-74
2021/05/04 03:10:09;;;;;;;24.20;18.10;;;;;;;2.17;73.20;100266.39;127675;1104;22379;-73
2021/05/04 03:12:41;;;;;;;22.55;17.60;;;;;;;2.16;73.40;100267.31;127965;1101;24433;-74
2021/05/04 03:15:21;;;;;;;22.45;18.55;;;;;;;2.14;73.45;100267.45;127998;1104;22999;-74
2021/05/04 03:17:50;;;;;;;24.83;19.17;;;;;;;2.16;73.63;100265.53;128023;1102;22394;-75
2021/05/04 03:20:19;;;;;;;29.18;21.53;;;;;;;2.16;73.41;100255.11;128262;1101;22355;-73
2021/05/04 03:22:48;;;;;;;28.43;21.93;;;;;;;2.16;73.36;100249.89;127995;1103;22347;-74
2021/05/04 03:25:17;;;;;;;30.05;21.38;;;;;;;2.16;73.52;100249.89;127949;1104;22828;-74
2021/05/04 03:27:45;;;;;;;27.68;22.45;;;;;;;2.19;73.56;100243.63;127925;1100;24326;-74
2021/05/04 03:30:15;;;;;;;29.28;21.88;;;;;;;2.21;73.57;100241.75;127948;1104;22430;-75
2021/05/04 03:32:44;;;;;;;27.70;22.08;;;;;;;2.23;73.49;100247.66;128035;1100;22822;-75
2021/05/04 03:35:14;;;;;;;24.88;19.90;;;;;;;2.24;73.64;100247.55;128043;1104;22443;-74
2021/05/04 03:37:43;;;;;;;27.25;20.15;;;;;;;2.26;73.61;100237.82;128078;1101;22367;-74
2021/05/04 03:40:13;;;;;;;28.33;19.80;;;;;;;2.30;73.57;100238.41;127967;1104;22366;-75
2021/05/04 03:42:44;;;;;;;24.23;18.18;;;;;;;2.31;73.61;100235.70;127997;1101;22465;-74
2021/05/04 03:45:13;;;;;;;25.60;17.75;;;;;;;2.34;73.57;100234.66;128015;1101;24485;-75
2021/05/04 03:47:45;;;;;;;24.58;18.40;;;;;;;2.37;73.62;100234.42;127994;1104;23122;-73
2021/05/04 03:50:21;;;;;;;23.60;17.93;;;;;;;2.44;73.74;100230.39;128016;1104;22507;-73
2021/05/04 03:52:51;;;;;;;27.97;18.63;;;;;;;2.50;73.67;100221.23;128011;1102;23469;-74
2021/05/04 03:55:21;;;;;;;23.15;16.90;;;;;;;2.56;73.71;100223.38;127651;1103;24505;-76
2021/05/04 03:57:49;;;;;;;22.40;17.70;;;;;;;2.62;73.71;100227.29;127612;1105;22357;-73
2021/05/04 04:00:20;;;;;;;28.98;17.33;;;;;;;2.68;73.58;100221.60;128018;1104;23333;-74
2021/05/04 04:02:49;;;;;;;25.00;15.88;;;;;;;2.73;73.56;100215.08;128004;1104;22428;-74
2021/05/04 04:05:18;;;;;;;22.98;17.15;;;;;;;2.79;73.29;100214.58;127986;1100;24252;-74
2021/05/04 04:07:47;;;;;;;25.15;17.55;;;;;;;2.85;73.36;100217.66;128032;1101;22414;-74
2021/05/04 04:10:15;;;;;;;23.93;17.80;;;;;;;2.94;73.33;100219.55;128240;1101;22356;-75
2021/05/04 04:12:44;;;;;;;23.35;16.45;;;;;;;3.04;73.48;100216.08;128211;1101;22368;-75
2021/05/04 04:15:15;;;;;;;25.90;16.53;;;;;;;3.17;73.15;100210.70;128235;1098;24478;-75
2021/05/04 04:17:44;;;;;;;31.70;18.60;;;;;;;3.25;72.92;100210.91;128189;1098;24372;-75
2021/05/04 04:20:13;;;;;;;31.35;20.73;;;;;;;3.32;72.62;100211.23;128187;1098;24747;-74
2021/05/04 04:22:41;;;;;;;28.15;19.18;;;;;;;3.40;72.70;100208.84;128182;1101;22385;-75
2021/05/04 04:25:11;;;;;;;42.68;24.73;;;;;;;3.48;72.62;100201.20;128009;1102;22383;-75
2021/05/04 04:27:40;;;;;;;38.03;21.30;;;;;;;3.61;72.59;100203.64;128018;1098;22359;-74
2021/05/04 04:30:11;;;;;;;20.10;14.48;;;;;;;3.72;72.38;100207.97;128205;1098;22449;-75
2021/05/04 04:32:40;;;;;;;20.25;13.03;;;;;;;3.78;72.16;100197.84;128283;1101;22383;-75
2021/05/04 04:35:11;;;;;;;21.40;12.60;;;;;;;3.86;71.71;100193.75;128241;1098;25025;-75
2021/05/04 04:37:39;;;;;;;16.97;12.40;;;;;;;3.93;71.67;100197.50;128258;1098;22441;-76
2021/05/04 04:40:12;;;;;;;17.90;12.40;;;;;;;4.00;71.39;100182.98;128197;1101;22360;-73
2021/05/04 04:42:41;;;;;;;18.08;14.15;;;;;;;4.09;71.13;100179.58;128261;1101;22779;-73
2021/05/04 04:45:11;;;;;;;22.75;15.08;;;;;;;4.12;70.66;100181.92;128216;1101;22353;-75
2021/05/04 04:47:41;;;;;;;29.58;19.43;;;;;;;4.13;70.69;100183.61;128058;1102;22468;-76
2021/05/04 04:50:11;;;;;;;24.53;16.60;;;;;;;4.16;70.41;100185.11;128232;1101;22339;-75
2021/05/04 04:52:40;;;;;;;23.33;16.15;;;;;;;4.18;70.02;100184.02;127894;1104;22478;-75
2021/05/04 04:55:08;;;;;;;24.78;15.95;;;;;;;4.22;70.14;100171.52;127978;1104;22355;-74
2021/05/04 04:57:37;;;;;;;23.13;15.97;;;;;;;4.28;69.92;100168.38;127919;1104;22381;-75
2021/05/04 05:00:07;;;;;;;20.70;14.98;;;;;;;4.42;69.99;100175.03;127936;1104;22359;-75
2021/05/04 05:02:35;;;;;;;21.00;14.80;;;;;;;4.54;69.64;100167.93;128029;1101;24585;-75
2021/05/04 05:05:06;;;;;;;24.90;16.75;;;;;;;4.63;69.58;100165.34;127924;1104;22816;-75
2021/05/04 05:07:34;;;;;;;26.75;16.25;;;;;;;4.79;69.57;100161.36;127974;1101;24265;-73
2021/05/04 05:10:04;;;;;;;24.03;15.73;;;;;;;4.96;69.30;100150.22;127942;1102;22358;-76
2021/05/04 05:12:33;;;;;;;23.68;15.80;;;;;;;5.05;68.42;100138.94;127914;1101;22367;-76
2021/05/04 05:15:03;;;;;;;18.88;14.50;;;;;;;5.11;67.92;100143.63;127975;1105;22507;-74
2021/05/04 05:17:32;;;;;;;21.55;14.20;;;;;;;5.15;67.70;100134.52;127940;1104;22362;-76
2021/05/04 05:20:01;;;;;;;20.28;14.98;;;;;;;5.27;67.83;100129.16;127916;1104;22686;-75
2021/05/04 05:22:31;;;;;;;22.45;15.20;;;;;;;5.45;67.85;100127.47;127584;1102;24483;-75
2021/05/04 05:25:04;;;;;;;17.53;14.78;;;;;;;5.62;67.50;100126.75;127960;1103;24472;-74
2021/05/04 05:27:33;;;;;;;18.50;14.55;;;;;;;5.86;67.38;100120.20;127557;1105;23150;-76
2021/05/04 05:30:08;;;;;;;17.68;14.63;;;;;;;6.09;66.85;100118.91;127550;1101;24989;-75
2021/05/04 05:32:37;;;;;;;19.83;13.25;;;;;;;6.34;66.28;100108.73;127968;1104;22355;-74
2021/05/04 05:35:08;;;;;;;18.75;13.93;;;;;;;6.58;65.88;100102.92;127939;1101;24481;-75
2021/05/04 05:37:37;;;;;;;18.20;13.58;;;;;;;6.72;64.83;100104.20;127905;1101;22352;-78
2021/05/04 05:40:07;;;;;;;21.98;13.60;;;;;;;6.87;64.33;100107.98;128037;1102;22352;-78
2021/05/04 05:42:37;;;;;;;15.48;12.30;;;;;;;6.98;63.75;100091.98;128277;1101;22341;-78
2021/05/04 05:45:07;;;;;;;15.43;11.05;;;;;;;7.14;63.43;100098.36;128075;1101;22340;-77
2021/05/04 05:47:36;;;;;;;16.45;10.95;;;;;;;7.23;63.05;100092.17;128085;1104;22722;-75
2021/05/04 05:50:06;;;;;;;25.33;10.90;;;;;;;7.26;62.30;100092.73;127980;1101;24572;-75
2021/05/04 05:52:35;;;;;;;15.33;11.70;;;;;;;7.26;61.93;100091.88;127951;1101;22386;-74
2021/05/04 05:55:09;;;;;;;13.53;10.98;;;;;;;7.32;61.85;100101.78;127998;1104;22482;-75
2021/05/04 05:57:44;;;;;;;15.73;11.60;;;;;;;7.39;61.74;100086.22;127983;1100;24575;-77
2021/05/04 06:00:16;;;;;;;13.50;11.15;;;;;;;7.48;61.79;100074.80;127961;1104;22424;-74
2021/05/04 06:02:46;;;;;;;15.50;11.98;;;;;;;7.58;61.39;100072.89;128064;1104;22449;-75
2021/05/04 06:05:15;;;;;;;15.43;10.80;;;;;;;7.67;61.12;100076.41;128001;1098;23276;-74
2021/05/04 06:07:44;;;;;;;14.78;11.55;;;;;;;7.75;60.79;100063.28;127927;1100;22349;-74
2021/05/04 06:10:13;;;;;;;16.00;11.48;;;;;;;7.93;60.92;100068.45;127950;1104;22379;-74
2021/05/04 06:12:42;;;;;;;15.80;12.50;;;;;;;8.06;60.21;100055.69;127585;1102;24508;-75
2021/05/04 06:15:12;;;;;;;15.83;11.68;;;;;;;8.24;60.04;100060.87;127589;1105;22377;-75
2021/05/04 06:17:44;;;;;;;13.30;10.90;;;;;;;8.42;59.65;100040.53;127631;1105;22351;-75
2021/05/04 06:20:14;;;;;;;14.18;12.15;;;;;;;8.61;59.42;100049.95;127526;1104;22373;-75
2021/05/04 06:22:46;;;;;;;15.45;12.00;;;;;;;8.78;58.67;100037.63;127064;1108;23403;-75
2021/05/04 06:25:16;;;;;;;14.83;11.70;;;;;;;8.92;58.52;100029.06;127603;1105;22381;-75
2021/05/04 06:27:53;;;;;;;17.03;11.30;;;;;;;9.08;57.92;100022.16;127068;1109;23288;-75
2021/05/04 06:30:22;;;;;;;18.45;11.38;;;;;;;9.21;57.48;100016.38;127088;1107;23863;-75
2021/05/04 06:32:51;;;;;;;15.65;11.65;;;;;;;9.32;57.10;100008.94;127467;1105;25128;-75
2021/05/04 06:35:22;;;;;;;15.23;12.25;;;;;;;9.41;56.83;100017.66;127559;1107;22413;-74
2021/05/04 06:37:54;;;;;;;16.95;11.95;;;;;;;9.56;56.67;100001.95;127541;1105;22384;-77
2021/05/04 06:40:29;;;;;;;15.60;12.00;;;;;;;9.70;56.45;100000.45;127615;1105;22670;-75
2021/05/04 06:43:02;;;;;;;11.78;10.08;;;;;;;9.85;55.94;99994.27;127602;1101;22403;-75
2021/05/04 06:45:31;;;;;;;13.63;10.78;;;;;;;9.83;55.24;99998.05;127656;1105;22353;-75
2021/05/04 06:48:01;;;;;;;12.53;10.73;;;;;;;9.86;55.48;99992.44;127625;1100;25805;-75
2021/05/04 06:50:30;;;;;;;14.28;10.30;;;;;;;9.94;55.03;99996.88;127986;1101;24180;-74
2021/05/04 06:53:01;;;;;;;17.90;12.08;;;;;;;10.05;55.45;99991.20;127562;1105;24495;-75
2021/05/04 06:55:34;;;;;;;16.83;11.93;;;;;;;10.25;55.07;99979.20;127642;1102;24526;-75
2021/05/04 06:58:04;;;;;;;13.30;10.30;;;;;;;10.37;54.30;99966.47;127578;1102;22380;-75
2021/05/04 07:00:39;;;;;;;13.23;10.38;;;;;;;10.54;54.17;99970.63;127534;1105;24288;-76
2021/05/04 07:03:08;;;;;;;;;;;;;;;10.76;53.42;99971.63;127095;1108;22588;-75
2021/05/04 07:05:37;;;;;;;12.68;10.15;;;;;;;10.97;53.88;99970.93;127530;1108;21300;-74
2021/05/04 07:08:09;;;;;;;14.47;9.63;;;;;;;11.17;53.06;99962.48;127271;1108;23148;-74
2021/05/04 07:10:44;;;;;;;14.63;10.15;;;;;;;11.27;52.26;99965.69;127591;1105;24093;-74
2021/05/04 07:13:22;;;;;;;12.18;8.73;;;;;;;11.29;52.06;99967.13;127964;1101;22445;-75
2021/05/04 07:15:54;;;;;;;11.43;8.73;;;;;;;11.41;51.87;99956.92;127958;1101;24196;-75
2021/05/04 07:18:25;;;;;;;725.50;115.93;;;;;;;11.61;51.99;99959.02;127706;1101;22361;-75
2021/05/04 07:20:57;;;;;;;25.58;11.40;;;;;;;11.92;52.24;99954.33;127924;1104;22363;-73
2021/05/04 07:23:26;;;;;;;15.50;9.98;;;;;;;12.22;51.59;99947.12;127586;1103;24546;-75
2021/05/04 07:26:23;;;;;;;13.30;9.60;;;;;;;12.42;51.00;99946.50;127601;1107;22412;-78
2021/05/04 07:28:52;;;;;;;15.20;9.75;;;;;;;12.44;49.91;99942.66;127609;1104;22366;-78
2021/05/04 07:31:21;;;;;;;13.73;8.68;;;;;;;12.55;49.96;99936.02;127585;1107;22757;-78
2021/05/04 07:33:50;;;;;;;13.63;8.07;;;;;;;12.72;49.88;99939.22;127583;1105;24504;-80
2021/05/04 07:36:20;;;;;;;15.73;9.13;;;;;;;12.90;49.51;99928.97;127123;1108;22838;-81
2021/05/04 07:38:49;;;;;;;14.78;7.95;;;;;;;13.01;48.46;99934.75;127118;1107;22373;-80
2021/05/04 07:41:20;;;;;;;13.85;9.53;;;;;;;13.06;48.29;99922.56;127112;1106;25123;-79
2021/05/04 07:43:52;;;;;;;11.73;7.60;;;;;;;13.20;48.02;99926.11;127297;1108;22855;-79
2021/05/04 07:46:24;;;;;;;10.00;6.80;;;;;;;13.35;47.18;99918.05;127008;1111;22418;-79
2021/05/04 07:48:56;;;;;;;12.00;7.78;;;;;;;13.48;46.84;99912.80;127104;1108;22404;-80
2021/05/04 07:51:40;;;;;;;8.45;6.25;;;;;;;13.65;46.49;99906.13;127183;1108;22390;-80
2021/05/04 07:54:09;;;;;;;7.20;6.50;;;;;;;13.76;45.89;99895.95;127092;1108;22834;-79
2021/05/04 07:56:38;;;;;;;9.33;8.03;;;;;;;14.09;46.49;99896.05;127139;1108;22413;-78
2021/05/04 07:59:11;;;;;;;12.03;7.53;;;;;;;14.41;45.42;99888.33;127337;1108;22419;-79
2021/05/04 08:01:40;;;;;;;;;;;;;;;14.71;45.54;99881.59;127563;1105;24534;-80
2021/05/04 08:04:10;;;;;;;7.85;5.83;;;;;;;14.98;45.12;99878.89;127467;1104;21307;-78
2021/05/04 08:06:40;;;;;;;7.55;5.50;;;;;;;15.09;43.51;99880.91;127636;1105;22391;-79
2021/05/04 08:09:10;;;;;;;8.38;6.80;;;;;;;15.17;43.64;99874.56;127663;1108;22369;-79
2021/05/04 08:11:39;;;;;;;11.65;6.55;;;;;;;15.28;43.00;99865.92;127608;1105;24511;-79
2021/05/04 08:14:10;;;;;;;7.15;6.15;;;;;;;15.33;42.80;99871.44;127374;1108;22478;-79
2021/05/04 08:16:42;;;;;;;9.40;6.38;;;;;;;15.51;43.22;99858.24;127591;1108;22380;-79
2021/05/04 08:19:15;;;;;;;9.40;6.33;;;;;;;15.80;42.66;99866.74;127859;1108;22374;-79
2021/05/04 08:21:48;;;;;;;15.40;9.25;;;;;;;16.00;42.39;99867.44;127543;1105;22359;-79
2021/05/04 08:24:19;;;;;;;;;;;;;;;16.14;41.48;99862.83;127877;1108;22446;-79
2021/05/04 08:26:53;;;;;;;13.00;9.85;;;;;;;16.50;42.20;99866.66;127227;1108;22996;-79
2021/05/04 08:29:22;;;;;;;7.73;5.98;;;;;;;16.47;40.18;99848.43;127416;1103;25734;-78
2021/05/04 08:31:51;;;;;;;9.30;5.75;;;;;;;16.61;40.74;99849.13;127655;1104;22379;-79
2021/05/04 08:34:21;;;;;;;10.98;6.60;;;;;;;16.62;40.09;99838.22;127353;1108;22565;-79
2021/05/04 08:36:56;;;;;;;6.98;6.23;;;;;;;16.64;40.07;99827.35;127617;1108;23243;-79
2021/05/04 08:39:25;;;;;;;6.85;5.43;;;;;;;16.69;39.97;99822.16;127878;1105;24507;-78
2021/05/04 08:41:54;;;;;;;7.60;5.90;;;;;;;16.65;39.24;99816.45;127561;1107;23137;-78
2021/05/04 08:44:24;;;;;;;7.58;5.78;;;;;;;16.73;39.43;99828.70;127635;1107;22385;-79
2021/05/04 08:46:54;;;;;;;7.50;5.20;;;;;;;16.71;38.28;99812.09;127201;1108;22464;-78
2021/05/04 08:49:23;;;;;;;4.93;4.43;;;;;;;16.40;37.21;99813.83;127105;1108;23266;-78
2021/05/04 08:51:52;;;;;;;5.45;4.58;;;;;;;16.24;38.04;99801.86;127314;1107;22371;-78
2021/05/04 08:54:21;;;;;;;8.93;7.83;;;;;;;16.13;37.56;99807.91;127119;1106;22402;-78
2021/05/04 08:56:50;;;;;;;10.60;7.08;;;;;;;16.05;38.18;99802.84;127103;1107;22377;-79
2021/05/04 08:59:23;;;;;;;8.08;5.13;;;;;;;15.96;37.90;99804.13;127348;1107;22376;-79
2021/05/04 09:01:55;;;;;;;5.73;4.80;;;;;;;15.88;38.09;99791.90;127543;1107;22774;-79
2021/05/04 09:07:24;;;;;;;7.73;5.08;;;;;;;15.56;38.03;99772.44;127680;1105;22372;-80
2021/05/04 09:10:23;;;;;;;5.63;4.35;;;;;;;15.50;38.34;99771.44;127631;1104;22389;-78
2021/05/04 09:13:02;;;;;;;6.35;4.78;;;;;;;15.42;37.92;99768.20;127886;1104;24159;-80
2021/05/04 09:21:30;;;;;;;6.43;4.18;;;;;;;15.59;38.15;99757.86;128046;1098;22361;-77
2021/05/04 09:24:20;;;;;;;10.65;5.08;;;;;;;15.59;38.23;99758.67;128117;1100;22328;-79
2021/05/04 09:27:00;;;;;;;7.58;4.90;;;;;;;15.74;38.42;99751.23;128503;1101;22493;-79
2021/05/04 09:29:55;;;;;;;8.30;4.90;;;;;;;15.74;37.79;99742.44;128530;1098;24955;-79
2021/05/04 09:32:48;;;;;;;5.33;4.20;;;;;;;15.74;37.95;99735.25;128265;1098;22426;-78
2021/05/04 09:35:29;;;;;;;6.50;4.80;;;;;;;15.78;38.30;99727.65;128056;1101;22373;-78
2021/05/04 09:38:13;;;;;;;7.75;4.50;;;;;;;15.79;37.67;99717.80;127987;1104;22368;-78
2021/05/04 09:40:45;;;;;;;7.30;4.55;;;;;;;15.81;37.65;99708.58;128012;1101;22558;-78
2021/05/04 09:43:19;;;;;;;7.33;4.73;;;;;;;15.81;37.67;99708.58;127958;1104;22368;-79
2021/05/04 09:45:56;;;;;;;5.95;4.85;;;;;;;15.87;37.65;99693.58;128011;1104;22349;-78
2021/05/04 09:48:35;;;;;;;7.18;4.85;;;;;;;15.91;37.79;99697.43;127686;1104;24169;-79
2021/05/04 09:51:18;;;;;;;6.13;4.05;;;;;;;15.98;37.89;99680.34;127597;1104;24488;-80
2021/05/04 09:56:42;;;;;;;7.00;4.07;;;;;;;15.93;37.21;99656.23;127551;1107;21331;-79
2021/05/04 09:59:11;;;;;;;5.18;3.20;;;;;;;16.10;37.75;99658.33;127554;1105;24581;-78
2021/05/04 10:01:40;;;;;;;5.53;4.30;;;;;;;16.27;37.39;99651.38;127119;1105;24498;-78
2021/05/04 10:04:12;;;;;;;;;;;;;;;16.48;36.84;99647.44;127243;1108;22362;-78
2021/05/04 10:06:41;;;;;;;7.43;5.13;;;;;;;16.58;37.50;99644.24;127289;1104;21284;-80
2021/05/04 10:09:17;;;;;;;6.33;4.30;;;;;;;16.70;36.84;99634.45;127745;1105;22365;-78
2021/05/04 10:11:46;;;;;;;5.25;3.73;;;;;;;16.84;36.79;99627.92;127618;1104;22366;-79
2021/05/04 10:14:16;;;;;;;5.10;3.95;;;;;;;17.07;36.51;99618.38;128095;1104;22383;-78
2021/05/04 10:16:48;;;;;;;8.50;5.25;;;;;;;17.05;36.12;99607.11;127752;1101;24504;-79
2021/05/04 10:19:22;;;;;;;5.30;3.95;;;;;;;17.11;36.43;99607.02;128073;1105;22357;-80
2021/05/04 10:21:52;;;;;;;5.75;4.35;;;;;;;17.19;36.56;99587.17;128070;1101;22365;-80
2021/05/04 10:24:27;;;;;;;7.58;5.45;;;;;;;17.25;35.63;99601.47;127999;1104;22368;-79
2021/05/04 10:26:57;;;;;;;;;;;;;;;17.05;34.87;99596.44;127745;1105;22456;-78
2021/05/04 10:29:29;;;;;;;5.28;4.28;;;;;;;16.90;36.04;99584.34;128300;1104;21274;-80
2021/05/04 10:31:59;;;;;;;4.55;3.95;;;;;;;17.02;36.36;99578.22;127967;1104;22386;-79
2021/05/04 10:34:34;;;;;;;8.40;4.40;;;;;;;17.06;36.34;99582.88;128055;1102;22364;-79
2021/05/04 10:37:36;;;;;;;7.45;4.38;;;;;;;16.84;35.09;99571.91;128049;1104;23057;-76
2021/05/04 10:40:23;;;;;;;3.78;3.28;;;;;;;16.90;35.92;99559.52;127813;1107;22388;-80
2021/05/04 10:42:54;;;;;;;4.33;3.55;;;;;;;16.82;35.66;99565.98;127570;1108;22365;-78
2021/05/04 10:45:43;;;;;;;7.38;3.45;;;;;;;16.82;35.45;99560.64;127651;1104;22462;-77
2021/05/04 10:48:12;;;;;;;7.10;3.67;;;;;;;16.69;34.88;99552.80;127609;1107;22465;-78
2021/05/04 10:50:49;;;;;;;3.75;2.95;;;;;;;16.60;34.74;99538.19;127558;1107;22370;-79
2021/05/04 10:53:23;;;;;;;8.08;4.15;;;;;;;16.56;34.97;99542.32;127580;1107;22407;-79
2021/05/04 10:55:56;;;;;;;4.70;4.15;;;;;;;16.63;35.31;99535.07;127842;1104;22363;-79
2021/05/04 10:58:43;;;;;;;6.15;4.25;;;;;;;16.74;35.16;99514.80;127998;1101;24484;-79
2021/05/04 11:01:17;;;;;;;9.40;4.30;;;;;;;16.76;35.21;99516.23;127879;1101;22340;-78
2021/05/04 11:03:52;;;;;;;6.88;3.50;;;;;;;16.70;34.38;99517.92;127853;1104;22720;-80
2021/05/04 11:06:45;;;;;;;4.30;3.60;;;;;;;16.52;34.06;99512.64;127589;1108;22464;-80
2021/05/04 11:09:16;;;;;;;5.73;3.90;;;;;;;16.41;34.23;99500.90;126755;1111;22981;-76
2021/05/04 11:11:47;;;;;;;8.15;4.58;;;;;;;16.48;34.66;99493.62;126769;1113;22561;-77
2021/05/04 11:14:16;;;;;;;7.27;4.13;;;;;;;16.54;35.05;99488.43;126605;1110;25025;-78
2021/05/04 11:17:01;;;;;;;5.33;3.85;;;;;;;16.51;34.86;99484.36;126975;1109;23510;-77
2021/05/04 11:19:44;;;;;;;7.33;3.83;;;;;;;16.35;35.14;99471.67;127021;1110;22399;-77
2021/05/04 11:22:23;;;;;;;4.83;3.75;;;;;;;16.19;35.13;99475.78;126990;1111;22497;-76
2021/05/04 11:24:57;;;;;;;5.25;3.38;;;;;;;16.15;36.11;99470.09;126816;1111;22415;-77
2021/05/04 11:27:29;;;;;;;5.23;3.65;;;;;;;16.07;35.67;99451.77;126892;1107;22379;-76
2021/05/04 11:30:02;;;;;;;7.70;3.33;;;;;;;16.02;35.86;99440.96;127134;1110;24891;-76
2021/05/04 11:32:44;;;;;;;6.00;3.00;;;;;;;15.96;35.51;99450.69;127271;1107;22387;-76
2021/05/04 11:35:14;;;;;;;;;;;;;;;15.88;35.38;99448.31;127473;1108;22840;-76
2021/05/04 11:37:49;;;;;;;5.15;3.63;;;;;;;15.84;35.94;99433.83;127516;1108;21422;-76
2021/05/04 11:40:25;;;;;;;5.25;4.28;;;;;;;15.93;36.21;99435.16;127472;1106;22478;-78
2021/05/04 11:43:02;;;;;;;7.15;4.65;;;;;;;16.06;35.81;99420.01;127046;1105;22396;-78
2021/05/04 11:45:33;;;;;;;6.53;5.28;;;;;;;16.03;35.32;99417.80;127120;1107;22386;-75
2021/05/04 11:48:07;;;;;;;8.15;3.85;;;;;;;16.00;35.54;99406.57;127537;1107;22383;-77